Etusivu
METAR-TAF:

METAR-TAF

Lentoasemat :

Santiago de Cuba, Kuuba

Leveyspiiri: 19-58N, Pituuspiiri: 075-51W, korkeus merenpinnasta: 69 m

Tämänhetkinen sää

Tämä raportti tehtiin 54 minuuttia sitten, kello 09.51 UTC
Tuuli 7 kn pohjoisesta
Lämpötila 22°C
Kosteus 78%
Ilmanpaine 1016 hPa
Näkyvyys: 9000 m
Muutamia pilviä 2000 ft:n korkeudessa

METAR: MUCU 060951Z 01007KT 9000 FEW020 22/18 Q1016

Aika: 05:45 (10:45 UTC)

Sääennuste

Tämä raportti tehtiin 5 tuntia ja 45 minuuttia sitten, kello 05.00 UTC
Ennuste voimassa 06. päivästä klo 06 UTC - 07. päivään klo 06 UTC
Tuuli 3 kn eri suunnista
Näkyvyys: 9000 m
Hajanaisia pilviä 2000 ft:n korkeudessa
Tulossa
06. päivästä klo 15 UTC - 06. päivään klo 17 UTC
Tuuli 7 kn etelästä
Tulossa
07. päivästä klo 01 UTC - 07. päivään klo 03 UTC
Tuuli 3 kn eri suunnista

TAF: MUCU 060500Z 0606/0706 VRB03KT 9000 SCT020 BECMG 0615/0617 18007KT BECMG 0701/0703 VRB03KT

Säähavainnot ja -ennusteet yli 4000 lentoasemalta (METAR- ja TAF-raportit).

Käytössä olevat sääasemat on merkitty karttaan keltaisilla ja punaisilla pisteillä.

Aseta hiiri pisteen päälle nähdäksesi sääaseman nimen.

Klikkaa sitten nähdäksesi säähavainnot ja -ennusteet.

Kartan vaihtaminen: klikkaa mustalla rastilla varustettuja vihreitä pisteitä, niin voit zoomata sisään; viivalla varustettua vihreää pistettä, niin voit zoomata ulos tai vihreitä nuolia, niin pääset viereisille kartoille.


METAR-TAF: